sensor_id;sensor_type;location;lat;lon;timestamp;temperature;humidity
10300;DHT22;5195;48.562;9.192;2024-01-30T00:00:22;5.80;54.00
10300;DHT22;5195;48.562;9.192;2024-01-30T00:02:58;5.90;53.50
10300;DHT22;5195;48.562;9.192;2024-01-30T00:05:35;5.70;53.60
10300;DHT22;5195;48.562;9.192;2024-01-30T00:08:11;5.50;53.90
10300;DHT22;5195;48.562;9.192;2024-01-30T00:10:46;5.50;53.90
10300;DHT22;5195;48.562;9.192;2024-01-30T00:13:22;5.80;54.30
10300;DHT22;5195;48.562;9.192;2024-01-30T00:15:58;6.20;53.80
10300;DHT22;5195;48.562;9.192;2024-01-30T00:18:33;6.20;53.30
10300;DHT22;5195;48.562;9.192;2024-01-30T00:21:09;6.30;53.10
10300;DHT22;5195;48.562;9.192;2024-01-30T00:23:46;6.60;52.70
10300;DHT22;5195;48.562;9.192;2024-01-30T00:26:22;6.90;52.10
10300;DHT22;5195;48.562;9.192;2024-01-30T00:28:50;6.70;52.00
10300;DHT22;5195;48.562;9.192;2024-01-30T00:31:16;6.40;52.50
10300;DHT22;5195;48.562;9.192;2024-01-30T00:33:42;6.50;52.60
10300;DHT22;5195;48.562;9.192;2024-01-30T00:36:08;6.70;52.90
10300;DHT22;5195;48.562;9.192;2024-01-30T00:38:33;6.90;51.50
10300;DHT22;5195;48.562;9.192;2024-01-30T00:41:00;7.00;51.10
10300;DHT22;5195;48.562;9.192;2024-01-30T00:43:25;6.80;51.20
10300;DHT22;5195;48.562;9.192;2024-01-30T00:45:51;6.50;51.70
10300;DHT22;5195;48.562;9.192;2024-01-30T00:48:16;6.50;52.40
10300;DHT22;5195;48.562;9.192;2024-01-30T00:50:42;6.40;52.00
10300;DHT22;5195;48.562;9.192;2024-01-30T00:53:08;6.10;52.20
10300;DHT22;5195;48.562;9.192;2024-01-30T00:55:35;5.90;52.60
10300;DHT22;5195;48.562;9.192;2024-01-30T00:58:01;6.00;53.30
10300;DHT22;5195;48.562;9.192;2024-01-30T01:00:27;6.00;53.10
10300;DHT22;5195;48.562;9.192;2024-01-30T01:02:56;5.60;53.50
10300;DHT22;5195;48.562;9.192;2024-01-30T01:05:21;5.60;53.50
10300;DHT22;5195;48.562;9.192;2024-01-30T01:07:48;5.70;53.80
10300;DHT22;5195;48.562;9.192;2024-01-30T01:10:13;5.70;53.80
10300;DHT22;5195;48.562;9.192;2024-01-30T01:12:39;5.70;53.40
10300;DHT22;5195;48.562;9.192;2024-01-30T01:15:05;5.50;53.40
10300;DHT22;5195;48.562;9.192;2024-01-30T01:17:31;5.40;53.80
10300;DHT22;5195;48.562;9.192;2024-01-30T01:19:59;5.40;54.50
10300;DHT22;5195;48.562;9.192;2024-01-30T01:22:25;5.80;54.00
10300;DHT22;5195;48.562;9.192;2024-01-30T01:24:51;5.80;54.00
10300;DHT22;5195;48.562;9.192;2024-01-30T01:27:16;6.20;53.60
10300;DHT22;5195;48.562;9.192;2024-01-30T01:29:42;6.40;53.00
10300;DHT22;5195;48.562;9.192;2024-01-30T01:32:07;6.30;52.90
10300;DHT22;5195;48.562;9.192;2024-01-30T01:34:33;6.00;53.20
10300;DHT22;5195;48.562;9.192;2024-01-30T01:36:59;5.90;54.10
10300;DHT22;5195;48.562;9.192;2024-01-30T01:39:26;5.90;54.00
10300;DHT22;5195;48.562;9.192;2024-01-30T01:41:53;5.90;53.80
10300;DHT22;5195;48.562;9.192;2024-01-30T01:44:21;5.70;53.90
10300;DHT22;5195;48.562;9.192;2024-01-30T01:46:47;5.70;54.40
10300;DHT22;5195;48.562;9.192;2024-01-30T01:49:12;5.70;54.40
10300;DHT22;5195;48.562;9.192;2024-01-30T01:51:38;5.80;54.10
10300;DHT22;5195;48.562;9.192;2024-01-30T01:54:04;6.00;54.30
10300;DHT22;5195;48.562;9.192;2024-01-30T01:56:30;6.00;54.00
10300;DHT22;5195;48.562;9.192;2024-01-30T01:58:55;6.10;53.90
10300;DHT22;5195;48.562;9.192;2024-01-30T02:01:20;6.40;53.40
10300;DHT22;5195;48.562;9.192;2024-01-30T02:03:46;6.40;53.30
10300;DHT22;5195;48.562;9.192;2024-01-30T02:06:17;6.70;52.60
10300;DHT22;5195;48.562;9.192;2024-01-30T02:08:42;6.70;52.60
10300;DHT22;5195;48.562;9.192;2024-01-30T02:11:08;6.90;52.40
10300;DHT22;5195;48.562;9.192;2024-01-30T02:13:34;7.00;51.60
10300;DHT22;5195;48.562;9.192;2024-01-30T02:15:59;6.80;51.60
10300;DHT22;5195;48.562;9.192;2024-01-30T02:18:25;6.50;52.10
10300;DHT22;5195;48.562;9.192;2024-01-30T02:20:53;6.50;52.40
10300;DHT22;5195;48.562;9.192;2024-01-30T02:23:18;6.70;51.80
10300;DHT22;5195;48.562;9.192;2024-01-30T02:25:43;6.60;51.60
10300;DHT22;5195;48.562;9.192;2024-01-30T02:28:15;6.60;51.50
10300;DHT22;5195;48.562;9.192;2024-01-30T02:30:44;6.70;51.10
10300;DHT22;5195;48.562;9.192;2024-01-30T02:33:12;6.60;50.40
10300;DHT22;5195;48.562;9.192;2024-01-30T02:35:37;6.60;50.40
10300;DHT22;5195;48.562;9.192;2024-01-30T02:38:03;6.50;50.60
10300;DHT22;5195;48.562;9.192;2024-01-30T02:40:29;6.60;50.50
10300;DHT22;5195;48.562;9.192;2024-01-30T02:42:54;6.40;50.60
10300;DHT22;5195;48.562;9.192;2024-01-30T02:45:23;6.00;51.10
10300;DHT22;5195;48.562;9.192;2024-01-30T02:47:48;5.70;51.60
10300;DHT22;5195;48.562;9.192;2024-01-30T02:50:14;5.80;52.40
10300;DHT22;5195;48.562;9.192;2024-01-30T02:52:40;5.90;52.10
10300;DHT22;5195;48.562;9.192;2024-01-30T02:55:06;5.90;51.70
10300;DHT22;5195;48.562;9.192;2024-01-30T02:57:31;5.60;52.00
10300;DHT22;5195;48.562;9.192;2024-01-30T02:59:58;5.40;52.50
10300;DHT22;5195;48.562;9.192;2024-01-30T03:02:25;5.50;53.10
10300;DHT22;5195;48.562;9.192;2024-01-30T03:04:51;5.70;53.60
10300;DHT22;5195;48.562;9.192;2024-01-30T03:07:17;5.60;53.50
10300;DHT22;5195;48.562;9.192;2024-01-30T03:09:42;6.00;53.30
10300;DHT22;5195;48.562;9.192;2024-01-30T03:12:09;6.20;52.70
10300;DHT22;5195;48.562;9.192;2024-01-30T03:14:34;6.20;52.70
10300;DHT22;5195;48.562;9.192;2024-01-30T03:17:00;6.20;53.00
10300;DHT22;5195;48.562;9.192;2024-01-30T03:19:25;6.10;52.90
10300;DHT22;5195;48.562;9.192;2024-01-30T03:21:53;6.20;53.30
10300;DHT22;5195;48.562;9.192;2024-01-30T03:24:18;6.50;53.00
10300;DHT22;5195;48.562;9.192;2024-01-30T03:26:45;6.10;53.50
10300;DHT22;5195;48.562;9.192;2024-01-30T03:29:10;6.10;53.00
10300;DHT22;5195;48.562;9.192;2024-01-30T03:31:36;5.90;53.30
10300;DHT22;5195;48.562;9.192;2024-01-30T03:34:01;6.00;53.30
10300;DHT22;5195;48.562;9.192;2024-01-30T03:36:27;5.90;53.10
10300;DHT22;5195;48.562;9.192;2024-01-30T03:38:52;6.00;52.80
10300;DHT22;5195;48.562;9.192;2024-01-30T03:41:18;5.90;52.60
10300;DHT22;5195;48.562;9.192;2024-01-30T03:43:45;6.00;52.90
10300;DHT22;5195;48.562;9.192;2024-01-30T03:46:11;5.90;52.70
10300;DHT22;5195;48.562;9.192;2024-01-30T03:48:38;5.70;53.00
10300;DHT22;5195;48.562;9.192;2024-01-30T03:51:04;5.60;53.40
10300;DHT22;5195;48.562;9.192;2024-01-30T03:53:31;5.60;53.40
10300;DHT22;5195;48.562;9.192;2024-01-30T03:55:57;5.90;52.70
10300;DHT22;5195;48.562;9.192;2024-01-30T03:58:22;5.80;52.40
10300;DHT22;5195;48.562;9.192;2024-01-30T04:00:49;5.60;52.80
10300;DHT22;5195;48.562;9.192;2024-01-30T04:03:15;5.60;53.20
10300;DHT22;5195;48.562;9.192;2024-01-30T04:05:43;5.80;52.60
10300;DHT22;5195;48.562;9.192;2024-01-30T04:08:09;5.60;53.00
10300;DHT22;5195;48.562;9.192;2024-01-30T04:10:35;5.40;53.40
10300;DHT22;5195;48.562;9.192;2024-01-30T04:13:01;5.40;53.40
10300;DHT22;5195;48.562;9.192;2024-01-30T04:15:27;5.20;53.70
10300;DHT22;5195;48.562;9.192;2024-01-30T04:17:52;5.00;53.90
10300;DHT22;5195;48.562;9.192;2024-01-30T04:20:18;5.30;54.10
10300;DHT22;5195;48.562;9.192;2024-01-30T04:22:44;5.20;54.00
10300;DHT22;5195;48.562;9.192;2024-01-30T04:25:10;5.10;54.10
10300;DHT22;5195;48.562;9.192;2024-01-30T04:27:35;5.00;54.20
10300;DHT22;5195;48.562;9.192;2024-01-30T04:30:01;4.80;54.30
10300;DHT22;5195;48.562;9.192;2024-01-30T04:32:26;4.90;54.20
10300;DHT22;5195;48.562;9.192;2024-01-30T04:34:53;5.30;53.40
10300;DHT22;5195;48.562;9.192;2024-01-30T04:37:18;5.20;53.30
10300;DHT22;5195;48.562;9.192;2024-01-30T04:39:44;5.30;53.60
10300;DHT22;5195;48.562;9.192;2024-01-30T04:42:10;5.10;54.20
10300;DHT22;5195;48.562;9.192;2024-01-30T04:44:36;5.00;53.40
10300;DHT22;5195;48.562;9.192;2024-01-30T04:47:02;4.90;53.40
10300;DHT22;5195;48.562;9.192;2024-01-30T04:49:28;4.80;53.90
10300;DHT22;5195;48.562;9.192;2024-01-30T04:51:54;4.60;53.40
10300;DHT22;5195;48.562;9.192;2024-01-30T04:54:19;4.50;53.30
10300;DHT22;5195;48.562;9.192;2024-01-30T04:56:46;4.40;53.70
10300;DHT22;5195;48.562;9.192;2024-01-30T04:59:12;4.80;53.70
10300;DHT22;5195;48.562;9.192;2024-01-30T05:01:39;4.70;53.40
10300;DHT22;5195;48.562;9.192;2024-01-30T05:04:07;4.70;53.20
10300;DHT22;5195;48.562;9.192;2024-01-30T05:06:30;4.50;53.40
10300;DHT22;5195;48.562;9.192;2024-01-30T05:08:57;4.30;53.90
10300;DHT22;5195;48.562;9.192;2024-01-30T05:11:22;4.40;54.10
10300;DHT22;5195;48.562;9.192;2024-01-30T05:13:49;4.70;53.40
10300;DHT22;5195;48.562;9.192;2024-01-30T05:16:14;4.70;53.40
10300;DHT22;5195;48.562;9.192;2024-01-30T05:18:40;4.70;53.40
10300;DHT22;5195;48.562;9.192;2024-01-30T05:21:06;4.40;53.50
10300;DHT22;5195;48.562;9.192;2024-01-30T05:23:32;4.40;53.50
10300;DHT22;5195;48.562;9.192;2024-01-30T05:25:57;4.30;53.90
10300;DHT22;5195;48.562;9.192;2024-01-30T05:28:24;4.10;54.30
10300;DHT22;5195;48.562;9.192;2024-01-30T05:30:50;4.20;54.40
10300;DHT22;5195;48.562;9.192;2024-01-30T05:33:17;4.10;54.00
10300;DHT22;5195;48.562;9.192;2024-01-30T05:35:43;4.10;54.30
10300;DHT22;5195;48.562;9.192;2024-01-30T05:38:08;4.20;54.70
10300;DHT22;5195;48.562;9.192;2024-01-30T05:40:34;4.60;54.30
10300;DHT22;5195;48.562;9.192;2024-01-30T05:42:59;4.80;53.70
10300;DHT22;5195;48.562;9.192;2024-01-30T05:45:26;5.10;53.50
10300;DHT22;5195;48.562;9.192;2024-01-30T05:47:53;5.00;54.10
10300;DHT22;5195;48.562;9.192;2024-01-30T05:50:21;4.90;53.80
10300;DHT22;5195;48.562;9.192;2024-01-30T05:52:49;4.60;54.20
10300;DHT22;5195;48.562;9.192;2024-01-30T05:55:14;4.60;54.20
10300;DHT22;5195;48.562;9.192;2024-01-30T05:57:40;4.50;54.70
10300;DHT22;5195;48.562;9.192;2024-01-30T06:00:06;4.60;54.80
10300;DHT22;5195;48.562;9.192;2024-01-30T06:02:32;4.60;54.50
10300;DHT22;5195;48.562;9.192;2024-01-30T06:04:58;4.50;54.70
10300;DHT22;5195;48.562;9.192;2024-01-30T06:07:23;4.70;54.90
10300;DHT22;5195;48.562;9.192;2024-01-30T06:09:49;5.00;53.90
10300;DHT22;5195;48.562;9.192;2024-01-30T06:12:15;5.00;53.50
10300;DHT22;5195;48.562;9.192;2024-01-30T06:14:40;5.00;53.60
10300;DHT22;5195;48.562;9.192;2024-01-30T06:17:06;5.00;53.50
10300;DHT22;5195;48.562;9.192;2024-01-30T06:19:32;4.50;54.10
10300;DHT22;5195;48.562;9.192;2024-01-30T06:21:59;4.50;54.10
10300;DHT22;5195;48.562;9.192;2024-01-30T06:24:25;4.30;54.40
10300;DHT22;5195;48.562;9.192;2024-01-30T06:26:53;4.20;54.70
10300;DHT22;5195;48.562;9.192;2024-01-30T06:29:20;4.20;55.10
10300;DHT22;5195;48.562;9.192;2024-01-30T06:31:45;4.20;55.10
10300;DHT22;5195;48.562;9.192;2024-01-30T06:34:11;4.30;54.80
10300;DHT22;5195;48.562;9.192;2024-01-30T06:36:36;4.40;54.40
10300;DHT22;5195;48.562;9.192;2024-01-30T06:39:03;4.70;53.70
10300;DHT22;5195;48.562;9.192;2024-01-30T06:41:29;5.00;53.40
10300;DHT22;5195;48.562;9.192;2024-01-30T06:43:54;5.20;53.00
10300;DHT22;5195;48.562;9.192;2024-01-30T06:46:20;5.10;53.10
10300;DHT22;5195;48.562;9.192;2024-01-30T06:48:46;5.10;53.30
10300;DHT22;5195;48.562;9.192;2024-01-30T06:51:11;4.90;53.20
10300;DHT22;5195;48.562;9.192;2024-01-30T06:53:37;4.60;53.50
10300;DHT22;5195;48.562;9.192;2024-01-30T06:56:02;4.70;53.60
10300;DHT22;5195;48.562;9.192;2024-01-30T06:58:28;4.90;53.30
10300;DHT22;5195;48.562;9.192;2024-01-30T07:00:54;4.80;53.00
10300;DHT22;5195;48.562;9.192;2024-01-30T07:03:19;4.60;53.40
10300;DHT22;5195;48.562;9.192;2024-01-30T07:05:45;4.30;53.80
10300;DHT22;5195;48.562;9.192;2024-01-30T07:08:11;4.10;54.20
10300;DHT22;5195;48.562;9.192;2024-01-30T07:10:37;3.90;54.50
10300;DHT22;5195;48.562;9.192;2024-01-30T07:13:04;4.10;54.80
10300;DHT22;5195;48.562;9.192;2024-01-30T07:15:29;4.50;54.40
10300;DHT22;5195;48.562;9.192;2024-01-30T07:17:55;4.50;54.00
10300;DHT22;5195;48.562;9.192;2024-01-30T07:20:21;4.60;54.10
10300;DHT22;5195;48.562;9.192;2024-01-30T07:22:46;4.90;53.60
10300;DHT22;5195;48.562;9.192;2024-01-30T07:25:12;5.20;52.90
10300;DHT22;5195;48.562;9.192;2024-01-30T07:27:37;5.10;52.70
10300;DHT22;5195;48.562;9.192;2024-01-30T07:30:04;4.60;53.70
10300;DHT22;5195;48.562;9.192;2024-01-30T07:32:33;4.40;54.70
10300;DHT22;5195;48.562;9.192;2024-01-30T07:34:59;4.40;54.10
10300;DHT22;5195;48.562;9.192;2024-01-30T07:37:25;4.30;54.60
10300;DHT22;5195;48.562;9.192;2024-01-30T07:39:51;4.70;54.70
10300;DHT22;5195;48.562;9.192;2024-01-30T07:42:16;4.70;54.70
10300;DHT22;5195;48.562;9.192;2024-01-30T07:44:42;4.70;54.90
10300;DHT22;5195;48.562;9.192;2024-01-30T07:47:08;4.90;54.90
10300;DHT22;5195;48.562;9.192;2024-01-30T07:49:33;5.40;54.30
10300;DHT22;5195;48.562;9.192;2024-01-30T07:52:00;5.80;53.30
10300;DHT22;5195;48.562;9.192;2024-01-30T07:54:25;5.80;53.30
10300;DHT22;5195;48.562;9.192;2024-01-30T07:56:51;6.20;51.70
10300;DHT22;5195;48.562;9.192;2024-01-30T07:59:18;6.20;51.70
10300;DHT22;5195;48.562;9.192;2024-01-30T08:01:44;6.10;51.70
10300;DHT22;5195;48.562;9.192;2024-01-30T08:04:09;5.90;52.20
10300;DHT22;5195;48.562;9.192;2024-01-30T08:06:35;6.00;52.70
10300;DHT22;5195;48.562;9.192;2024-01-30T08:09:00;6.30;52.10
10300;DHT22;5195;48.562;9.192;2024-01-30T08:11:26;6.30;51.80
10300;DHT22;5195;48.562;9.192;2024-01-30T08:13:55;6.40;51.50
10300;DHT22;5195;48.562;9.192;2024-01-30T08:16:20;6.60;51.10
10300;DHT22;5195;48.562;9.192;2024-01-30T08:18:47;6.80;50.60
10300;DHT22;5195;48.562;9.192;2024-01-30T08:21:13;7.00;50.10
10300;DHT22;5195;48.562;9.192;2024-01-30T08:23:39;6.90;50.30
10300;DHT22;5195;48.562;9.192;2024-01-30T08:26:04;6.70;50.80
10300;DHT22;5195;48.562;9.192;2024-01-30T08:28:32;6.70;50.90
10300;DHT22;5195;48.562;9.192;2024-01-30T08:30:58;7.00;50.90
10300;DHT22;5195;48.562;9.192;2024-01-30T08:33:24;7.50;50.20
10300;DHT22;5195;48.562;9.192;2024-01-30T08:35:50;7.50;50.20
10300;DHT22;5195;48.562;9.192;2024-01-30T08:38:15;7.50;50.20
10300;DHT22;5195;48.562;9.192;2024-01-30T08:40:41;7.60;50.90
10300;DHT22;5195;48.562;9.192;2024-01-30T08:43:07;7.60;50.90
10300;DHT22;5195;48.562;9.192;2024-01-30T08:45:44;7.50;51.30
10300;DHT22;5195;48.562;9.192;2024-01-30T08:48:10;7.40;51.50
10300;DHT22;5195;48.562;9.192;2024-01-30T08:50:36;7.40;52.30
10300;DHT22;5195;48.562;9.192;2024-01-30T08:53:02;7.30;52.30
10300;DHT22;5195;48.562;9.192;2024-01-30T08:55:27;7.40;52.40
10300;DHT22;5195;48.562;9.192;2024-01-30T08:57:53;7.50;52.50
10300;DHT22;5195;48.562;9.192;2024-01-30T09:00:20;7.60;52.80
10300;DHT22;5195;48.562;9.192;2024-01-30T09:02:46;7.60;52.00
10300;DHT22;5195;48.562;9.192;2024-01-30T09:05:11;7.60;52.00
10300;DHT22;5195;48.562;9.192;2024-01-30T09:07:38;7.50;51.80
10300;DHT22;5195;48.562;9.192;2024-01-30T09:10:04;7.50;51.90
10300;DHT22;5195;48.562;9.192;2024-01-30T09:12:30;7.40;52.10
10300;DHT22;5195;48.562;9.192;2024-01-30T09:14:57;7.40;52.10
10300;DHT22;5195;48.562;9.192;2024-01-30T09:17:23;7.60;51.30
10300;DHT22;5195;48.562;9.192;2024-01-30T09:19:49;7.50;51.20
10300;DHT22;5195;48.562;9.192;2024-01-30T09:22:15;7.60;51.00
10300;DHT22;5195;48.562;9.192;2024-01-30T09:24:41;7.80;50.50
10300;DHT22;5195;48.562;9.192;2024-01-30T09:27:07;8.20;49.80
10300;DHT22;5195;48.562;9.192;2024-01-30T09:29:33;8.50;49.40
10300;DHT22;5195;48.562;9.192;2024-01-30T09:31:59;8.80;49.40
10300;DHT22;5195;48.562;9.192;2024-01-30T09:34:24;8.70;49.20
10300;DHT22;5195;48.562;9.192;2024-01-30T09:36:51;8.80;49.10
10300;DHT22;5195;48.562;9.192;2024-01-30T09:39:17;8.90;48.80
10300;DHT22;5195;48.562;9.192;2024-01-30T09:42:00;9.10;47.90
10300;DHT22;5195;48.562;9.192;2024-01-30T09:44:32;9.00;48.80
10300;DHT22;5195;48.562;9.192;2024-01-30T09:47:07;9.00;48.70
10300;DHT22;5195;48.562;9.192;2024-01-30T09:49:45;8.80;49.20
10300;DHT22;5195;48.562;9.192;2024-01-30T09:52:24;8.70;49.50
10300;DHT22;5195;48.562;9.192;2024-01-30T09:55:01;8.60;49.90
10300;DHT22;5195;48.562;9.192;2024-01-30T09:57:36;8.50;50.10
10300;DHT22;5195;48.562;9.192;2024-01-30T10:00:12;8.40;50.30
10300;DHT22;5195;48.562;9.192;2024-01-30T10:02:49;8.40;50.50
10300;DHT22;5195;48.562;9.192;2024-01-30T10:05:28;8.30;50.50
10300;DHT22;5195;48.562;9.192;2024-01-30T10:08:05;8.30;50.70
10300;DHT22;5195;48.562;9.192;2024-01-30T10:10:42;8.50;49.60
10300;DHT22;5195;48.562;9.192;2024-01-30T10:13:18;8.60;49.20
10300;DHT22;5195;48.562;9.192;2024-01-30T10:15:55;8.70;49.30
10300;DHT22;5195;48.562;9.192;2024-01-30T10:18:33;8.90;50.00
10300;DHT22;5195;48.562;9.192;2024-01-30T10:21:09;8.80;49.20
10300;DHT22;5195;48.562;9.192;2024-01-30T10:23:44;9.10;48.40
10300;DHT22;5195;48.562;9.192;2024-01-30T10:26:21;9.20;48.40
10300;DHT22;5195;48.562;9.192;2024-01-30T10:28:59;9.10;48.80
10300;DHT22;5195;48.562;9.192;2024-01-30T10:31:35;9.60;47.00
10300;DHT22;5195;48.562;9.192;2024-01-30T10:34:10;9.60;46.90
10300;DHT22;5195;48.562;9.192;2024-01-30T10:36:46;9.90;46.40
10300;DHT22;5195;48.562;9.192;2024-01-30T10:39:21;9.80;46.60
10300;DHT22;5195;48.562;9.192;2024-01-30T10:41:58;9.90;46.60
10300;DHT22;5195;48.562;9.192;2024-01-30T10:47:25;9.90;46.60
10300;DHT22;5195;48.562;9.192;2024-01-30T10:49:57;9.80;47.00
10300;DHT22;5195;48.562;9.192;2024-01-30T10:52:33;9.80;46.40
10300;DHT22;5195;48.562;9.192;2024-01-30T10:55:10;9.90;46.40
10300;DHT22;5195;48.562;9.192;2024-01-30T10:57:47;9.90;47.30
10300;DHT22;5195;48.562;9.192;2024-01-30T11:00:22;9.90;46.70
10300;DHT22;5195;48.562;9.192;2024-01-30T11:02:59;9.80;47.20
10300;DHT22;5195;48.562;9.192;2024-01-30T11:05:35;9.90;46.60
10300;DHT22;5195;48.562;9.192;2024-01-30T11:08:15;9.90;46.90
10300;DHT22;5195;48.562;9.192;2024-01-30T11:10:48;10.10;44.80
10300;DHT22;5195;48.562;9.192;2024-01-30T11:13:32;10.30;45.40
10300;DHT22;5195;48.562;9.192;2024-01-30T11:16:07;10.30;44.90
10300;DHT22;5195;48.562;9.192;2024-01-30T11:18:49;10.40;43.80
10300;DHT22;5195;48.562;9.192;2024-01-30T11:21:20;10.60;43.90
10300;DHT22;5195;48.562;9.192;2024-01-30T11:23:57;10.90;43.10
10300;DHT22;5195;48.562;9.192;2024-01-30T11:26:32;11.10;42.80
10300;DHT22;5195;48.562;9.192;2024-01-30T11:29:09;11.40;42.50
10300;DHT22;5195;48.562;9.192;2024-01-30T11:31:52;11.40;42.60
10300;DHT22;5195;48.562;9.192;2024-01-30T11:34:29;11.50;42.20
10300;DHT22;5195;48.562;9.192;2024-01-30T11:37:06;11.60;42.00
10300;DHT22;5195;48.562;9.192;2024-01-30T11:39:41;11.40;42.10
10300;DHT22;5195;48.562;9.192;2024-01-30T11:42:16;11.40;42.10
10300;DHT22;5195;48.562;9.192;2024-01-30T11:44:52;11.30;42.80
10300;DHT22;5195;48.562;9.192;2024-01-30T11:47:28;11.10;43.20
10300;DHT22;5195;48.562;9.192;2024-01-30T11:50:04;11.10;43.20
10300;DHT22;5195;48.562;9.192;2024-01-30T11:52:41;11.40;42.90
10300;DHT22;5195;48.562;9.192;2024-01-30T11:55:16;11.40;43.30
10300;DHT22;5195;48.562;9.192;2024-01-30T11:57:55;11.40;42.80
10300;DHT22;5195;48.562;9.192;2024-01-30T12:00:31;11.20;43.80
10300;DHT22;5195;48.562;9.192;2024-01-30T12:03:07;11.20;43.70
10300;DHT22;5195;48.562;9.192;2024-01-30T12:05:42;11.40;43.30
10300;DHT22;5195;48.562;9.192;2024-01-30T12:08:18;11.40;43.50
10300;DHT22;5195;48.562;9.192;2024-01-30T12:10:57;11.50;43.00
10300;DHT22;5195;48.562;9.192;2024-01-30T12:13:33;11.50;43.30
10300;DHT22;5195;48.562;9.192;2024-01-30T12:16:09;11.70;43.50
10300;DHT22;5195;48.562;9.192;2024-01-30T12:18:45;11.60;43.40
10300;DHT22;5195;48.562;9.192;2024-01-30T12:21:21;11.50;44.10
10300;DHT22;5195;48.562;9.192;2024-01-30T12:23:57;11.70;43.90
10300;DHT22;5195;48.562;9.192;2024-01-30T12:26:33;12.00;43.10
10300;DHT22;5195;48.562;9.192;2024-01-30T12:29:08;11.90;43.20
10300;DHT22;5195;48.562;9.192;2024-01-30T12:31:45;11.80;43.70
10300;DHT22;5195;48.562;9.192;2024-01-30T12:34:22;11.70;44.20
10300;DHT22;5195;48.562;9.192;2024-01-30T12:36:57;11.50;44.40
10300;DHT22;5195;48.562;9.192;2024-01-30T12:39:33;11.40;44.50
10300;DHT22;5195;48.562;9.192;2024-01-30T12:42:09;11.30;44.80
10300;DHT22;5195;48.562;9.192;2024-01-30T12:44:46;11.50;44.20
10300;DHT22;5195;48.562;9.192;2024-01-30T12:47:22;11.80;44.00
10300;DHT22;5195;48.562;9.192;2024-01-30T12:49:59;11.90;44.20
10300;DHT22;5195;48.562;9.192;2024-01-30T12:52:35;11.90;44.20
10300;DHT22;5195;48.562;9.192;2024-01-30T12:55:10;11.80;44.40
10300;DHT22;5195;48.562;9.192;2024-01-30T12:57:45;11.70;44.80
10300;DHT22;5195;48.562;9.192;2024-01-30T13:00:22;11.90;43.90
10300;DHT22;5195;48.562;9.192;2024-01-30T13:02:58;12.00;44.10
10300;DHT22;5195;48.562;9.192;2024-01-30T13:05:34;12.00;44.50
10300;DHT22;5195;48.562;9.192;2024-01-30T13:08:09;12.20;43.70
10300;DHT22;5195;48.562;9.192;2024-01-30T13:10:46;12.30;43.90
10300;DHT22;5195;48.562;9.192;2024-01-30T13:13:22;12.40;43.40
10300;DHT22;5195;48.562;9.192;2024-01-30T13:16:00;12.40;43.40
10300;DHT22;5195;48.562;9.192;2024-01-30T13:18:36;12.70;42.60
10300;DHT22;5195;48.562;9.192;2024-01-30T13:21:11;13.10;42.00
10300;DHT22;5195;48.562;9.192;2024-01-30T13:23:47;13.30;41.90
10300;DHT22;5195;48.562;9.192;2024-01-30T13:26:23;13.20;42.20
10300;DHT22;5195;48.562;9.192;2024-01-30T13:28:59;13.10;42.10
10300;DHT22;5195;48.562;9.192;2024-01-30T13:31:34;13.00;42.50
10300;DHT22;5195;48.562;9.192;2024-01-30T13:34:10;12.70;43.00
10300;DHT22;5195;48.562;9.192;2024-01-30T13:36:46;12.80;42.10
10300;DHT22;5195;48.562;9.192;2024-01-30T13:39:21;12.70;42.50
10300;DHT22;5195;48.562;9.192;2024-01-30T13:41:58;12.70;42.10
10300;DHT22;5195;48.562;9.192;2024-01-30T13:44:35;12.70;42.10
10300;DHT22;5195;48.562;9.192;2024-01-30T13:47:10;13.10;41.10
10300;DHT22;5195;48.562;9.192;2024-01-30T13:49:45;13.10;41.10
10300;DHT22;5195;48.562;9.192;2024-01-30T13:52:21;13.50;40.90
10300;DHT22;5195;48.562;9.192;2024-01-30T13:54:57;13.40;40.40
10300;DHT22;5195;48.562;9.192;2024-01-30T13:57:34;13.60;40.00
10300;DHT22;5195;48.562;9.192;2024-01-30T14:00:10;13.40;40.50
10300;DHT22;5195;48.562;9.192;2024-01-30T14:02:45;13.10;41.10
10300;DHT22;5195;48.562;9.192;2024-01-30T14:05:21;12.80;41.70
10300;DHT22;5195;48.562;9.192;2024-01-30T14:07:58;12.90;40.60
10300;DHT22;5195;48.562;9.192;2024-01-30T14:10:33;12.90;41.10
10300;DHT22;5195;48.562;9.192;2024-01-30T14:13:10;13.00;40.70
10300;DHT22;5195;48.562;9.192;2024-01-30T14:15:46;13.30;39.50
10300;DHT22;5195;48.562;9.192;2024-01-30T14:18:22;13.30;40.00
10300;DHT22;5195;48.562;9.192;2024-01-30T14:20:57;13.30;39.80
10300;DHT22;5195;48.562;9.192;2024-01-30T14:23:33;13.50;39.20
10300;DHT22;5195;48.562;9.192;2024-01-30T14:26:09;13.20;40.40
10300;DHT22;5195;48.562;9.192;2024-01-30T14:28:45;13.20;40.20
10300;DHT22;5195;48.562;9.192;2024-01-30T14:31:20;13.30;39.30
10300;DHT22;5195;48.562;9.192;2024-01-30T14:33:57;13.50;39.80
10300;DHT22;5195;48.562;9.192;2024-01-30T14:36:32;13.50;39.80
10300;DHT22;5195;48.562;9.192;2024-01-30T14:39:09;13.50;39.90
10300;DHT22;5195;48.562;9.192;2024-01-30T14:41:44;13.50;39.90
10300;DHT22;5195;48.562;9.192;2024-01-30T14:44:20;13.80;40.10
10300;DHT22;5195;48.562;9.192;2024-01-30T14:46:56;13.80;40.10
10300;DHT22;5195;48.562;9.192;2024-01-30T14:49:32;14.00;40.10
10300;DHT22;5195;48.562;9.192;2024-01-30T14:52:07;13.80;40.40
10300;DHT22;5195;48.562;9.192;2024-01-30T14:54:43;13.80;40.50
10300;DHT22;5195;48.562;9.192;2024-01-30T14:57:18;13.70;40.90
10300;DHT22;5195;48.562;9.192;2024-01-30T14:59:54;13.30;41.20
10300;DHT22;5195;48.562;9.192;2024-01-30T15:02:29;13.40;42.00
10300;DHT22;5195;48.562;9.192;2024-01-30T15:05:05;13.30;42.10
10300;DHT22;5195;48.562;9.192;2024-01-30T15:07:41;13.30;41.80
10300;DHT22;5195;48.562;9.192;2024-01-30T15:10:18;13.20;42.30
10300;DHT22;5195;48.562;9.192;2024-01-30T15:12:54;12.90;42.60
10300;DHT22;5195;48.562;9.192;2024-01-30T15:15:31;13.20;43.30
10300;DHT22;5195;48.562;9.192;2024-01-30T15:18:06;13.10;43.30
10300;DHT22;5195;48.562;9.192;2024-01-30T15:20:42;13.00;43.00
10300;DHT22;5195;48.562;9.192;2024-01-30T15:23:17;12.70;43.30
10300;DHT22;5195;48.562;9.192;2024-01-30T15:25:53;12.70;43.60
10300;DHT22;5195;48.562;9.192;2024-01-30T15:28:35;12.70;43.60
10300;DHT22;5195;48.562;9.192;2024-01-30T15:31:13;12.70;43.80
10300;DHT22;5195;48.562;9.192;2024-01-30T15:33:49;12.30;44.20
10300;DHT22;5195;48.562;9.192;2024-01-30T15:36:29;12.30;44.20
10300;DHT22;5195;48.562;9.192;2024-01-30T15:39:04;12.40;44.60
10300;DHT22;5195;48.562;9.192;2024-01-30T15:41:39;12.30;44.40
10300;DHT22;5195;48.562;9.192;2024-01-30T15:44:16;11.90;44.90
10300;DHT22;5195;48.562;9.192;2024-01-30T15:46:52;11.80;44.70
10300;DHT22;5195;48.562;9.192;2024-01-30T15:49:28;12.00;44.10
10300;DHT22;5195;48.562;9.192;2024-01-30T15:52:04;12.00;44.00
10300;DHT22;5195;48.562;9.192;2024-01-30T15:54:40;12.20;44.20
10300;DHT22;5195;48.562;9.192;2024-01-30T15:57:15;12.40;43.10
10300;DHT22;5195;48.562;9.192;2024-01-30T15:59:52;12.30;43.80
10300;DHT22;5195;48.562;9.192;2024-01-30T16:02:28;12.40;42.70
10300;DHT22;5195;48.562;9.192;2024-01-30T16:05:03;12.30;43.00
10300;DHT22;5195;48.562;9.192;2024-01-30T16:07:39;12.10;43.40
10300;DHT22;5195;48.562;9.192;2024-01-30T16:10:14;12.20;43.00
10300;DHT22;5195;48.562;9.192;2024-01-30T16:12:50;12.50;42.60
10300;DHT22;5195;48.562;9.192;2024-01-30T16:15:27;12.70;42.50
10300;DHT22;5195;48.562;9.192;2024-01-30T16:18:02;12.60;42.60